createdAt,value
2023-05-01T00:03:20.577Z,6.75
2023-05-01T00:08:22.250Z,6.32
2023-05-01T00:13:24.504Z,8.00
2023-05-01T00:18:26.398Z,7.90
2023-05-01T00:23:28.175Z,9.73
2023-05-01T00:28:29.750Z,7.05
2023-05-01T00:33:31.432Z,7.50
2023-05-01T00:38:33.085Z,7.68
2023-05-01T00:43:35.308Z,7.00
2023-05-01T00:48:37.490Z,7.72
2023-05-01T00:53:42.695Z,6.63
2023-05-01T00:58:49.559Z,6.38
2023-05-01T01:03:51.870Z,7.80
2023-05-01T01:09:21.505Z,11.30
2023-05-01T01:19:57.052Z,6.00
2023-05-01T01:24:59.293Z,6.65
2023-05-01T01:30:03.576Z,8.45
2023-05-01T01:35:08.049Z,8.73
2023-05-01T01:40:15.779Z,10.57
2023-05-01T01:45:24.005Z,9.75
2023-05-01T01:50:28.090Z,9.10
2023-05-01T01:55:33.087Z,10.00
2023-05-01T02:00:35.960Z,5.97
2023-05-01T02:05:40.468Z,9.05
2023-05-01T02:10:44.378Z,9.95
2023-05-01T02:15:48.262Z,10.05
2023-05-01T02:20:50.967Z,6.55
2023-05-01T02:25:54.958Z,7.45
2023-05-01T02:30:57.572Z,6.35
2023-05-01T02:35:59.164Z,6.47
2023-05-01T02:41:02.436Z,6.97
2023-05-01T02:46:05.826Z,6.65
2023-05-01T02:51:09.845Z,9.32
2023-05-01T02:56:12.284Z,9.50
2023-05-01T03:01:13.967Z,9.20
2023-05-01T03:06:15.740Z,7.80
2023-05-01T03:11:17.444Z,9.95
2023-05-01T03:16:19.158Z,7.30
2023-05-01T03:21:20.792Z,8.13
2023-05-01T03:26:22.470Z,7.93
2023-05-01T03:31:25.323Z,9.60
2023-05-01T03:36:28.454Z,7.38
2023-05-01T03:41:30.568Z,6.88
2023-05-01T03:46:55.226Z,9.02
2023-05-01T03:52:01.137Z,7.88
2023-05-01T03:57:02.868Z,8.88
2023-05-01T04:02:05.210Z,7.97
2023-05-01T04:07:10.007Z,6.80
2023-05-01T04:12:11.854Z,9.00
2023-05-01T04:17:13.744Z,6.80
2023-05-01T04:22:16.164Z,6.20
2023-05-01T04:27:19.573Z,7.45
2023-05-01T04:32:21.661Z,6.28
2023-05-01T04:37:23.557Z,6.80
2023-05-01T04:42:31.180Z,5.38
2023-05-01T04:47:33.012Z,9.18
2023-05-01T04:52:35.973Z,5.95
2023-05-01T04:57:38.856Z,9.73
2023-05-01T05:02:42.758Z,8.77
2023-05-01T05:07:46.521Z,5.28
2023-05-01T05:13:05.465Z,10.13
2023-05-01T05:18:07.374Z,4.55
2023-05-01T05:23:09.496Z,7.10
2023-05-01T05:28:11.585Z,6.28
2023-05-01T05:33:13.896Z,3.55
2023-05-01T05:38:15.680Z,8.45
2023-05-01T05:43:20.500Z,7.75
2023-05-01T05:48:22.230Z,7.95
2023-05-01T05:53:25.898Z,9.07
2023-05-01T05:58:28.820Z,10.35
2023-05-01T06:03:30.684Z,7.47
2023-05-01T06:08:37.495Z,6.10
2023-05-01T06:13:41.338Z,6.28
2023-05-01T06:18:45.588Z,7.63
2023-05-01T06:23:47.602Z,5.53
2023-05-01T06:28:57.554Z,8.45
2023-05-01T06:34:00.299Z,7.30
2023-05-01T06:39:22.645Z,9.82
2023-05-01T06:44:24.710Z,11.43
2023-05-01T06:49:26.410Z,10.23
2023-05-01T06:54:28.219Z,9.23
2023-05-01T06:59:29.847Z,11.05
2023-05-01T07:04:31.766Z,8.45
2023-05-01T07:09:33.404Z,9.15
2023-05-01T07:14:35.856Z,7.40
2023-05-01T07:19:37.956Z,7.18
2023-05-01T07:24:39.908Z,5.88
2023-05-01T07:29:41.546Z,9.27
2023-05-01T07:34:43.522Z,7.55
2023-05-01T07:39:45.275Z,11.45
2023-05-01T07:44:47.236Z,8.10
2023-05-01T07:49:50.256Z,10.80
2023-05-01T07:54:52.011Z,8.13
2023-05-01T07:59:56.573Z,8.77
2023-05-01T08:04:58.797Z,10.45
2023-05-01T08:10:01.272Z,8.05
2023-05-01T08:15:03.292Z,9.52
2023-05-01T08:20:05.375Z,9.15
2023-05-01T08:25:07.642Z,8.70
2023-05-01T08:30:09.463Z,6.38
2023-05-01T08:35:14.988Z,7.00
2023-05-01T08:40:17.257Z,8.30
2023-05-01T08:45:21.315Z,6.72
2023-05-01T08:50:24.730Z,7.78
2023-05-01T08:55:27.896Z,8.23
2023-05-01T09:00:31.150Z,7.97
2023-05-01T09:05:33.721Z,9.95
2023-05-01T09:10:41.863Z,8.70
2023-05-01T09:15:44.499Z,6.40
2023-05-01T09:20:46.445Z,8.07
2023-05-01T09:25:49.605Z,6.78
2023-05-01T09:30:53.024Z,6.90
2023-05-01T09:35:57.067Z,7.88
2023-05-01T09:41:04.958Z,5.45
2023-05-01T09:46:12.765Z,5.55
2023-05-01T09:51:22.035Z,4.68
2023-05-01T09:56:24.376Z,7.55
2023-05-01T10:01:40.163Z,7.97
2023-05-01T10:06:42.206Z,6.35
2023-05-01T10:11:54.513Z,6.95
2023-05-01T10:16:57.958Z,4.22
2023-05-01T10:22:00.152Z,5.40
2023-05-01T10:27:05.714Z,4.72
2023-05-01T10:32:08.774Z,5.28
2023-05-01T10:37:23.413Z,5.47
2023-05-01T10:42:26.180Z,7.35
2023-05-01T10:47:28.806Z,4.75
2023-05-01T10:52:31.308Z,5.88
2023-05-01T10:57:44.041Z,4.30
2023-05-01T11:02:45.658Z,8.73
2023-05-01T11:07:48.162Z,6.10
2023-05-01T11:12:51.719Z,5.25
2023-05-01T11:17:53.820Z,6.75
2023-05-01T11:22:57.333Z,5.43
2023-05-01T11:28:01.955Z,4.65
2023-05-01T11:33:04.475Z,5.32
2023-05-01T11:38:06.394Z,5.07
2023-05-01T11:43:08.821Z,5.55
2023-05-01T11:48:16.564Z,3.10
2023-05-01T11:53:18.710Z,5.40
2023-05-01T11:58:32.574Z,7.57
2023-05-01T12:03:42.715Z,5.97
2023-05-01T12:08:51.054Z,4.75
2023-05-01T12:13:53.332Z,9.90
2023-05-01T12:18:55.515Z,3.53
2023-05-01T12:23:59.889Z,7.30
2023-05-01T12:29:04.472Z,4.82
2023-05-01T12:34:07.562Z,4.10
2023-05-01T12:39:12.937Z,4.28
2023-05-01T12:44:25.223Z,2.33
2023-05-01T12:49:28.197Z,3.72
2023-05-01T12:54:32.265Z,2.15
2023-05-01T12:59:36.084Z,3.30
2023-05-01T13:04:38.954Z,5.68
2023-05-01T13:09:51.965Z,3.78
2023-05-01T13:14:54.317Z,2.63
2023-05-01T13:20:04.031Z,2.95
2023-05-01T13:25:15.923Z,3.38
2023-05-01T13:30:22.015Z,4.93
2023-05-01T13:35:25.323Z,1.38
2023-05-01T13:40:27.775Z,8.63
2023-05-01T13:45:29.831Z,1.83
2023-05-01T13:50:31.632Z,5.00
2023-05-01T13:55:33.553Z,2.17
2023-05-01T14:00:35.442Z,3.95
2023-05-01T14:05:39.877Z,2.75
2023-05-01T14:10:41.870Z,5.25
2023-05-01T14:15:46.148Z,3.42
2023-05-01T14:20:48.279Z,3.55
2023-05-01T14:25:49.898Z,3.10
2023-05-01T14:30:52.679Z,4.72
2023-05-01T14:35:55.341Z,3.15
2023-05-01T14:40:57.722Z,3.42
2023-05-01T14:45:59.802Z,3.10
2023-05-01T14:51:04.414Z,2.63
2023-05-01T14:56:06.763Z,2.55
2023-05-01T15:01:08.420Z,3.42
2023-05-01T15:06:10.546Z,1.35
2023-05-01T15:11:14.319Z,2.17
2023-05-01T15:16:16.644Z,1.23
2023-05-01T15:21:18.417Z,3.22
2023-05-01T15:26:20.560Z,2.60
2023-05-01T15:31:22.793Z,1.58
2023-05-01T15:36:24.527Z,3.25
2023-05-01T15:41:26.456Z,1.75
2023-05-01T15:46:28.747Z,2.00
2023-05-01T15:51:31.876Z,3.72
2023-05-01T15:56:37.987Z,2.35
2023-05-01T16:01:40.035Z,2.97
2023-05-01T16:06:42.265Z,1.50
2023-05-01T16:11:44.087Z,2.88
2023-05-01T16:16:46.253Z,2.83
2023-05-01T16:21:48.026Z,3.63
2023-05-01T16:26:49.771Z,1.98
2023-05-01T16:31:52.009Z,1.70
2023-05-01T16:36:54.811Z,3.75
2023-05-01T16:41:56.450Z,2.78
2023-05-01T16:46:58.808Z,1.80
2023-05-01T16:52:02.572Z,3.40
2023-05-01T16:57:06.094Z,3.70
2023-05-01T17:02:08.030Z,4.07
2023-05-01T17:07:09.780Z,4.18
2023-05-01T17:12:11.584Z,3.20
2023-05-01T17:17:13.301Z,1.83
2023-05-01T17:22:15.388Z,2.88
2023-05-01T17:27:17.121Z,1.60
2023-05-01T17:32:29.588Z,2.83
2023-05-01T17:37:39.969Z,2.10
2023-05-01T17:42:41.974Z,2.13
2023-05-01T17:47:45.002Z,2.78
2023-05-01T17:52:46.834Z,2.72
2023-05-01T17:57:48.637Z,2.42
2023-05-01T18:02:50.295Z,2.67
2023-05-01T18:07:51.929Z,1.25
2023-05-01T18:12:53.537Z,1.80
2023-05-01T18:17:55.496Z,2.33
2023-05-01T18:22:57.237Z,2.17
2023-05-01T18:27:59.576Z,3.65
2023-05-01T18:33:01.299Z,10.15
2023-05-01T18:38:02.987Z,3.20
2023-05-01T18:43:05.098Z,14.43
2023-05-01T18:48:06.911Z,5.55
2023-05-01T18:53:08.589Z,7.85
2023-05-01T18:58:10.187Z,11.90
2023-05-01T19:03:13.326Z,5.10
2023-05-01T19:08:15.333Z,7.95
2023-05-01T19:13:16.942Z,5.07
2023-05-01T19:18:18.598Z,4.10
2023-05-01T19:23:20.288Z,5.75
2023-05-01T19:28:21.924Z,3.05
2023-05-01T19:33:24.732Z,6.70
2023-05-01T19:38:26.602Z,4.47
2023-05-01T19:43:28.412Z,4.85
2023-05-01T19:48:30.068Z,2.60
2023-05-01T19:53:31.826Z,4.25
2023-05-01T19:58:33.636Z,4.78
2023-05-01T20:03:35.760Z,2.80
2023-05-01T20:08:37.525Z,3.53
2023-05-01T20:13:39.133Z,2.38
2023-05-01T20:18:40.818Z,3.35
2023-05-01T20:23:42.818Z,2.35
2023-05-01T20:28:44.588Z,2.03
2023-05-01T20:33:46.542Z,2.42
2023-05-01T20:38:48.636Z,2.65
2023-05-01T20:43:50.241Z,2.22
2023-05-01T20:48:52.087Z,2.55
2023-05-01T20:53:53.886Z,3.47
2023-05-01T20:58:55.532Z,5.68
2023-05-01T21:03:59.606Z,2.75
2023-05-01T21:09:01.472Z,2.65
2023-05-01T21:14:03.364Z,3.28
2023-05-01T21:19:04.982Z,4.28
2023-05-01T21:24:08.671Z,2.92
2023-05-01T21:29:10.551Z,2.38
2023-05-01T21:34:17.253Z,2.58
2023-05-01T21:39:21.776Z,1.90
2023-05-01T21:44:29.466Z,2.15
2023-05-01T21:49:32.663Z,5.10
2023-05-01T21:54:36.639Z,2.67
2023-05-01T21:59:38.959Z,2.67
2023-05-01T22:04:40.593Z,3.08
2023-05-01T22:09:42.207Z,3.30
2023-05-01T22:14:47.531Z,4.10
2023-05-01T22:19:51.159Z,3.13
2023-05-01T22:24:52.857Z,3.88
2023-05-01T22:29:54.668Z,2.72
2023-05-01T22:34:56.276Z,4.85
2023-05-01T22:39:58.462Z,2.75
2023-05-01T22:45:00.291Z,3.20
2023-05-01T22:50:02.406Z,2.95
2023-05-01T22:55:04.650Z,2.78
2023-05-01T23:00:08.036Z,3.28
2023-05-01T23:05:10.395Z,3.03
2023-05-01T23:10:12.488Z,3.15
2023-05-01T23:15:18.466Z,3.95
2023-05-01T23:20:22.790Z,2.83
2023-05-01T23:25:26.158Z,2.55
2023-05-01T23:30:27.812Z,2.92
2023-05-01T23:35:29.837Z,7.53
2023-05-01T23:40:31.723Z,4.63
2023-05-01T23:45:33.409Z,4.85
2023-05-01T23:50:35.795Z,6.60
2023-05-01T23:55:42.670Z,4.63
